Terminal Aerodrome Forecast
Issued by NWS

Home | Current Version | Previous Version | Graphics & Text | Print | Product List | Glossary On
Versions: 1 2 3 4 5 6 7 8 9 10 11 12 13 14 15 16 17 18 19 20 21 22 23 24 25 26
000
FTUS43 KLOT 241134
TAFGYY
TAF
KGYY 241134Z 2412/2512 18006KT P6SM SCT120 BKN250
     FM241500 21013G21KT P6SM SCT100 BKN200
     FM242100 24014G22KT P6SM VCTS BKN040CB
     FM250000 26008KT P6SM BKN200
     FM250600 30007KT P6SM SCT200=

USA.gov is the U.S. government's official web portal to all federal, state and local government web resources and services.